Weather search by city/station or by Location Indicator (LI)

Please do one of the following:
a) Search the weather station by station, city or country name and click Search button
b) Enter the four-character Location Indicator (i.e. EFHK = Helsinki) and click Submit button

a) Search the station:   

b) Location Indicator:  

The ICAO Location Indicator code is explained here.

METAR = EFHK 301250Z 17005KT 110V210 9999 VCSH FEW015 SCT035 01/M10 Q1021 NOSIG

STATIONEFHK
NAMEHelsinki/Vantaa Arpt, UU, FI
OBSERVED30.03.2020 15:50 (30.03.2020 12:50 UTC), 28 min ago
TEMPERATURE1.0°C ( 34°F)
WINDCHILL-2 °C (28 °F)
WINDS (170 degrees) at 6 MPH (5 knots; 2.6 m/s)
HUMIDITY44%
PRESSURE1021 hPa
CONDITIONSshowers in vicinity